Afton, Tennessee
Current Conditions -  °F | °C
As of 12:53 PM on Friday 28 Nov 2014 (Local Time) from KTRI Reporting Station
Scattered Clouds Scattered Clouds  
Wind Chill: 27°   Ceiling: Unl
Heat Index: 34°   Visibility: 10mi
Dew Point: 21°   Wind: 9mph
Humidity: 59%   Direction: 200°SSW
Pressure: 30.33"   Gusts: NA
Location:  36.19°N, 82.74°W
Report Text: KTRI 281753Z 20008KT 10SM SCT030 SCT070 01/M06 A3033 RMK AO2 SLP273 T00111061 10017 21039 58018
Loading
Personal Weather Stations






























Interactive Weather Map New forecast layout! Learn more

10-Day Weather Forecast

Advertisements
Track Severe Weather on mobile